Time;durP1;ratioP1;P1;durP2;ratioP2;P2;SDS_P1;SDS_P2;PMS_P1;PMS_P2;Temp;Humidity;BMP_temperature;BMP_pressure;BME280_temperature;BME280_humidity;BME280_pressure;Samples;Min_cycle;Max_cycle;Signal;HPM_P1;HPM_P2
2021/04/23 03:32:48;;;;;;;19.37;17.23;;;3.00;99.90;;;;;;5941351;23;20923;-67
2021/04/23 03:35:14;;;;;;;19.57;17.60;;;2.90;99.90;;;;;;5042352;28;20553;-67
2021/04/23 03:37:42;;;;;;;17.33;15.90;;;3.10;99.90;;;;;;5033996;28;20445;-66
2021/04/23 03:40:10;;;;;;;16.80;14.80;;;3.10;99.90;;;;;;5033746;28;20448;-68
2021/04/23 03:42:36;;;;;;;16.83;15.53;;;3.10;99.90;;;;;;5033507;28;20444;-67
2021/04/23 03:45:03;;;;;;;17.50;15.80;;;3.10;99.90;;;;;;5033636;28;20445;-67
2021/04/23 03:47:29;;;;;;;17.97;16.43;;;3.00;99.90;;;;;;5033716;28;20451;-67
2021/04/23 03:49:56;;;;;;;17.50;15.67;;;3.10;99.90;;;;;;5033502;28;20464;-67
2021/04/23 03:52:23;;;;;;;20.30;16.87;;;3.00;99.90;;;;;;5033452;28;20449;-66
2021/04/23 03:54:49;;;;;;;17.47;15.90;;;3.00;99.90;;;;;;5033335;28;21014;-67
2021/04/23 03:57:15;;;;;;;18.30;16.50;;;2.90;99.90;;;;;;5033363;28;20483;-66
2021/04/23 03:59:41;;;;;;;20.10;18.13;;;2.70;99.90;;;;;;5033349;28;20459;-66
2021/04/23 04:02:08;;;;;;;18.93;16.80;;;2.60;99.90;;;;;;5033150;28;20548;-66
2021/04/23 04:04:34;;;;;;;19.87;17.13;;;2.70;99.90;;;;;;5033164;28;21184;-66
2021/04/23 04:07:01;;;;;;;18.47;16.77;;;2.70;99.90;;;;;;5033183;28;20543;-66
2021/04/23 04:09:27;;;;;;;18.50;17.10;;;2.70;99.90;;;;;;5033469;28;20453;-67
2021/04/23 04:11:54;;;;;;;23.50;17.07;;;2.60;99.90;;;;;;5032937;28;20491;-67
2021/04/23 04:14:20;;;;;;;17.07;15.93;;;2.60;99.90;;;;;;5032860;28;20442;-66
2021/04/23 04:16:46;;;;;;;17.97;16.13;;;2.70;99.90;;;;;;5032641;28;20491;-66
2021/04/23 04:19:12;;;;;;;17.97;16.33;;;2.80;99.90;;;;;;5032779;28;20462;-66
2021/04/23 04:21:39;;;;;;;24.53;16.40;;;2.80;99.90;;;;;;5032819;28;20441;-67
2021/04/23 04:24:07;;;;;;;17.10;15.77;;;2.80;99.90;;;;;;5032748;28;20827;-68
2021/04/23 04:26:33;;;;;;;19.13;16.50;;;2.80;99.90;;;;;;5032254;28;20459;-67
2021/04/23 04:28:59;;;;;;;18.47;15.10;;;2.90;99.90;;;;;;5032870;28;20454;-68
2021/04/23 04:31:26;;;;;;;16.30;14.73;;;2.90;99.90;;;;;;5032516;28;20471;-68
2021/04/23 04:33:52;;;;;;;16.50;14.80;;;2.90;99.90;;;;;;5032496;28;20854;-68
2021/04/23 04:36:19;;;;;;;17.40;15.90;;;3.00;99.90;;;;;;5032335;28;20508;-68
2021/04/23 04:38:46;;;;;;;15.63;14.03;;;3.10;99.90;;;;;;5032783;28;20461;-68
2021/04/23 04:41:13;;;;;;;16.47;14.80;;;3.10;99.90;;;;;;5032004;28;20942;-69
2021/04/23 04:43:39;;;;;;;16.57;14.93;;;3.20;99.90;;;;;;5032372;28;20444;-69
2021/04/23 04:46:06;;;;;;;16.17;14.60;;;3.20;99.90;;;;;;5032331;28;20459;-68
2021/04/23 04:48:32;;;;;;;17.30;15.57;;;3.20;99.90;;;;;;5032168;28;20456;-69
2021/04/23 04:51:00;;;;;;;17.80;14.47;;;3.20;99.90;;;;;;5032635;28;20452;-68
2021/04/23 04:53:27;;;;;;;16.17;14.50;;;3.20;99.90;;;;;;5032297;28;20865;-67
2021/04/23 04:55:55;;;;;;;18.93;17.03;;;3.20;99.90;;;;;;5031925;28;20481;-67
2021/04/23 04:58:27;;;;;;;15.87;14.20;;;3.30;99.90;;;;;;5031967;28;20865;-68
2021/04/23 05:00:53;;;;;;;17.13;15.73;;;3.30;99.90;;;;;;5032101;28;20867;-68
2021/04/23 05:03:20;;;;;;;17.90;16.03;;;3.40;99.90;;;;;;5031988;28;20475;-66
2021/04/23 05:05:49;;;;;;;16.10;14.60;;;3.50;99.90;;;;;;5032251;28;20445;-68
2021/04/23 05:08:16;;;;;;;18.03;16.03;;;3.50;99.90;;;;;;5031838;28;20499;-68
2021/04/23 05:10:42;;;;;;;19.90;16.50;;;3.60;99.90;;;;;;5032121;28;20452;-67
2021/04/23 05:13:09;;;;;;;16.57;14.90;;;3.90;99.90;;;;;;5031914;28;20452;-68
2021/04/23 05:15:36;;;;;;;17.93;16.23;;;4.30;99.90;;;;;;5031735;28;20484;-69
2021/04/23 05:18:03;;;;;;;17.30;16.00;;;4.80;99.90;;;;;;5031289;28;20481;-68
2021/04/23 05:20:29;;;;;;;23.73;17.57;;;5.10;99.90;;;;;;5031844;28;20464;-68
2021/04/23 05:22:55;;;;;;;16.63;15.27;;;5.60;99.90;;;;;;5031744;28;20453;-68
2021/04/23 05:25:23;;;;;;;19.17;17.07;;;5.90;99.90;;;;;;5031742;28;20543;-68
2021/04/23 05:27:50;;;;;;;19.77;17.33;;;6.10;99.90;;;;;;5031504;28;20463;-69
2021/04/23 05:30:18;;;;;;;21.30;18.60;;;6.20;99.90;;;;;;5031484;28;20454;-68
2021/04/23 05:32:46;;;;;;;18.70;17.10;;;6.30;99.90;;;;;;5030858;28;20503;-68
2021/04/23 05:35:15;;;;;;;16.87;15.47;;;6.50;99.90;;;;;;5031693;28;20512;-69
2021/04/23 05:37:41;;;;;;;18.37;16.77;;;6.70;99.90;;;;;;5031440;28;20473;-69
2021/04/23 05:40:12;;;;;;;17.00;15.57;;;7.00;99.90;;;;;;5031484;28;20554;-69
2021/04/23 05:42:38;;;;;;;19.27;17.23;;;7.20;99.90;;;;;;5031378;28;20445;-69
2021/04/23 05:45:06;;;;;;;18.80;17.00;;;7.40;99.90;;;;;;5031359;28;20457;-69
2021/04/23 05:47:32;;;;;;;16.93;15.80;;;7.50;99.90;;;;;;5031267;28;20484;-69
2021/04/23 05:49:59;;;;;;;19.80;16.67;;;7.80;99.70;;;;;;5030998;28;20510;-68
2021/04/23 05:52:26;;;;;;;17.30;15.80;;;8.30;99.20;;;;;;5031282;28;20454;-68
2021/04/23 05:54:52;;;;;;;16.83;15.50;;;8.50;97.80;;;;;;5031333;28;20460;-68
2021/04/23 05:57:19;;;;;;;19.10;17.30;;;8.60;97.10;;;;;;5031140;28;20449;-68
2021/04/23 05:59:45;;;;;;;19.07;17.10;;;8.70;96.90;;;;;;5031323;28;20449;-68
2021/04/23 06:02:11;;;;;;;19.03;17.20;;;8.90;96.30;;;;;;5031204;28;20464;-68
2021/04/23 06:04:37;;;;;;;18.27;16.47;;;9.10;96.00;;;;;;5030754;28;20982;-68
2021/04/23 06:07:04;;;;;;;16.93;15.63;;;9.30;94.60;;;;;;5031081;28;20487;-68
2021/04/23 06:09:31;;;;;;;17.80;16.20;;;9.50;94.40;;;;;;5031068;28;20457;-68
2021/04/23 06:11:57;;;;;;;19.30;17.47;;;9.80;93.80;;;;;;5031062;28;20452;-68
2021/04/23 06:14:23;;;;;;;19.40;17.67;;;10.20;92.30;;;;;;5030789;28;20460;-68
2021/04/23 06:16:51;;;;;;;17.80;16.27;;;10.40;91.60;;;;;;5030421;28;20484;-69
2021/04/23 06:19:17;;;;;;;16.20;14.87;;;10.80;90.80;;;;;;5030759;28;20451;-68
2021/04/23 06:21:43;;;;;;;19.27;17.57;;;11.20;90.00;;;;;;5030926;28;20461;-68
2021/04/23 06:24:11;;;;;;;17.60;16.00;;;11.50;87.70;;;;;;5030770;28;20460;-67
2021/04/23 06:26:37;;;;;;;17.70;16.33;;;11.70;87.60;;;;;;5030485;28;20459;-67
2021/04/23 06:29:04;;;;;;;18.20;16.80;;;12.30;84.20;;;;;;5030662;28;20510;-68
2021/04/23 06:31:30;;;;;;;17.97;16.57;;;12.90;82.50;;;;;;5030653;28;20469;-68
2021/04/23 06:33:56;;;;;;;19.93;18.43;;;13.20;80.70;;;;;;5030702;28;20543;-68
2021/04/23 06:36:22;;;;;;;18.93;17.63;;;13.40;77.70;;;;;;5030806;28;20493;-68
2021/04/23 06:38:49;;;;;;;18.67;17.20;;;13.50;77.40;;;;;;5030314;28;20444;-68
2021/04/23 06:41:16;;;;;;;19.90;18.13;;;13.90;76.50;;;;;;5030283;28;20533;-68
2021/04/23 06:43:43;;;;;;;17.90;16.50;;;14.30;73.70;;;;;;5030353;28;20552;-68
2021/04/23 06:46:10;;;;;;;18.97;17.30;;;14.70;70.80;;;;;;5032499;28;20961;-68
2021/04/23 06:48:36;;;;;;;19.23;17.80;;;14.60;71.80;;;;;;5034412;28;20453;-68
2021/04/23 06:51:04;;;;;;;19.97;18.17;;;14.70;70.20;;;;;;5034055;28;20437;-69
2021/04/23 06:53:31;;;;;;;19.63;17.77;;;15.20;67.90;;;;;;5034321;28;20456;-68
2021/04/23 06:55:57;;;;;;;18.50;17.00;;;16.00;65.60;;;;;;5034061;28;20482;-67
2021/04/23 06:58:24;;;;;;;18.20;16.80;;;15.90;64.50;;;;;;5034177;28;20464;-69
2021/04/23 07:00:50;;;;;;;18.33;16.93;;;16.20;63.20;;;;;;5033951;28;20449;-69
2021/04/23 07:03:16;;;;;;;18.80;17.50;;;16.40;62.00;;;;;;5033883;28;20510;-73
2021/04/23 07:05:45;;;;;;;19.50;17.87;;;16.60;61.00;;;;;;5034173;28;20856;-73
2021/04/23 07:08:11;;;;;;;20.90;18.87;;;16.70;60.10;;;;;;5033983;28;20947;-73
2021/04/23 07:10:39;;;;;;;20.73;18.83;;;17.00;58.80;;;;;;5033576;28;20460;-73
2021/04/23 07:13:05;;;;;;;20.07;18.50;;;17.60;58.60;;;;;;5033855;28;20457;-73
2021/04/23 07:15:34;;;;;;;19.63;18.13;;;18.00;56.50;;;;;;5033670;28;20825;-73
2021/04/23 07:18:02;;;;;;;20.43;18.60;;;18.00;56.30;;;;;;5033381;28;20480;-73
2021/04/23 07:20:29;;;;;;;17.70;16.30;;;17.60;56.10;;;;;;5033337;28;20489;-72
2021/04/23 07:22:55;;;;;;;17.67;16.53;;;17.70;56.00;;;;;;5033317;28;20445;-72
2021/04/23 07:25:22;;;;;;;17.87;16.23;;;17.80;55.20;;;;;;5033183;28;20449;-72
2021/04/23 07:27:49;;;;;;;19.37;17.77;;;17.90;54.20;;;;;;5033133;28;20453;-73
2021/04/23 07:30:19;;;;;;;17.97;16.50;;;17.90;54.70;;;;;;5033107;28;20949;-72
2021/04/23 07:32:46;;;;;;;18.30;17.00;;;18.30;54.70;;;;;;5032753;28;20817;-73
2021/04/23 07:35:14;;;;;;;18.13;16.93;;;18.50;54.00;;;;;;5033183;28;20824;-72
2021/04/23 07:37:40;;;;;;;17.83;16.40;;;18.60;53.20;;;;;;5033256;28;20460;-72
2021/04/23 07:40:09;;;;;;;18.83;17.07;;;18.60;53.20;;;;;;5032780;28;20460;-74
2021/04/23 07:42:35;;;;;;;18.80;17.30;;;18.80;52.90;;;;;;5030861;28;20449;-72
2021/04/23 07:45:02;;;;;;;19.77;18.27;;;18.70;52.50;;;;;;5033417;28;20508;-73
2021/04/23 07:47:29;;;;;;;18.03;16.77;;;19.00;52.20;;;;;;5033530;28;20459;-73
2021/04/23 07:49:56;;;;;;;18.70;17.07;;;19.60;51.10;;;;;;5033545;28;21022;-74
2021/04/23 07:52:22;;;;;;;18.20;16.97;;;20.20;50.10;;;;;;5033376;28;20449;-73
2021/04/23 07:54:48;;;;;;;19.63;17.70;;;20.40;49.20;;;;;;5033145;28;20456;-73
2021/04/23 07:57:15;;;;;;;18.30;17.00;;;20.60;48.60;;;;;;5032737;28;20495;-73
2021/04/23 07:59:41;;;;;;;19.47;17.87;;;20.50;49.00;;;;;;5033251;28;20457;-73
2021/04/23 08:02:08;;;;;;;19.00;17.20;;;20.40;49.00;;;;;;5033059;28;20449;-73
2021/04/23 08:04:38;;;;;;;19.60;17.73;;;20.60;48.50;;;;;;5033109;28;20445;-73
2021/04/23 08:07:05;;;;;;;17.47;16.20;;;20.80;48.30;;;;;;5033018;28;20544;-73
2021/04/23 08:09:32;;;;;;;19.33;17.93;;;19.90;49.40;;;;;;5031049;28;20453;-73
2021/04/23 08:11:58;;;;;;;19.17;17.77;;;19.50;48.90;;;;;;5033072;28;20469;-73
2021/04/23 08:14:24;;;;;;;19.80;18.30;;;20.20;48.90;;;;;;5033240;28;20441;-73
2021/04/23 08:16:50;;;;;;;19.03;17.63;;;21.20;47.50;;;;;;5032839;28;20489;-73
2021/04/23 08:19:16;;;;;;;18.73;17.23;;;20.90;47.50;;;;;;5032918;28;20463;-73
2021/04/23 08:21:43;;;;;;;19.37;17.73;;;20.70;46.50;;;;;;5032942;28;20453;-73
2021/04/23 08:24:11;;;;;;;18.80;17.40;;;21.00;46.80;;;;;;5032836;28;20457;-73
2021/04/23 08:26:38;;;;;;;18.43;16.73;;;21.00;46.90;;;;;;5032838;28;20457;-72
2021/04/23 08:29:04;;;;;;;18.27;16.87;;;20.90;46.60;;;;;;5032609;28;20981;-73
2021/04/23 08:31:31;;;;;;;18.20;16.67;;;21.20;46.50;;;;;;5032410;28;21044;-72
2021/04/23 08:33:57;;;;;;;18.00;16.60;;;21.60;45.70;;;;;;5032501;28;20481;-72
2021/04/23 08:36:23;;;;;;;17.07;16.03;;;21.30;45.40;;;;;;5032285;28;20488;-72
2021/04/23 08:38:49;;;;;;;18.00;16.43;;;21.70;43.80;;;;;;5032409;28;20530;-73
2021/04/23 08:41:16;;;;;;;17.60;16.20;;;21.60;44.80;;;;;;5032255;28;20526;-73
2021/04/23 08:43:42;;;;;;;17.43;16.43;;;22.30;43.80;;;;;;5032445;28;20453;-73
2021/04/23 08:46:09;;;;;;;17.47;15.90;;;22.90;42.60;;;;;;5032383;28;20445;-73
2021/04/23 08:48:35;;;;;;;17.43;16.33;;;23.40;41.20;;;;;;5032104;28;20453;-73
2021/04/23 08:51:02;;;;;;;17.80;16.20;;;23.70;40.70;;;;;;5032333;28;20457;-72
2021/04/23 08:53:29;;;;;;;16.87;15.63;;;23.90;39.60;;;;;;5032570;28;20954;-73
2021/04/23 08:55:56;;;;;;;18.00;16.53;;;24.40;39.30;;;;;;5032175;28;20488;-73
2021/04/23 08:58:24;;;;;;;17.20;16.00;;;24.20;39.60;;;;;;5032009;28;20460;-73
2021/04/23 09:00:51;;;;;;;17.03;15.83;;;24.30;38.50;;;;;;5031887;28;20453;-73
2021/04/23 09:03:19;;;;;;;18.10;16.60;;;23.80;39.00;;;;;;5031720;28;20460;-73
2021/04/23 09:06:07;;;;;;;18.23;16.90;;;24.30;37.60;;;;;;5031504;28;20453;-74
2021/04/23 09:08:34;;;;;;;17.53;16.10;;;23.70;38.10;;;;;;5030755;28;20486;-72
2021/04/23 09:11:14;;;;;;;16.27;15.37;;;23.80;37.60;;;;;;5031918;28;20449;-72
2021/04/23 09:13:49;;;;;;;18.73;17.53;;;23.60;37.90;;;;;;5031580;28;20449;-72
2021/04/23 09:16:18;;;;;;;17.53;16.33;;;23.40;37.50;;;;;;5031292;28;20861;-73
2021/04/23 09:18:44;;;;;;;18.10;16.83;;;23.30;37.70;;;;;;5031532;28;20453;-72
2021/04/23 09:21:14;;;;;;;17.90;16.17;;;22.90;39.50;;;;;;5031661;28;20452;-73
2021/04/23 09:23:52;;;;;;;19.07;17.37;;;23.90;38.10;;;;;;5031531;28;20484;-72
2021/04/23 09:26:33;;;;;;;18.20;16.80;;;24.10;37.10;;;;;;5031438;28;20448;-73
2021/04/23 09:29:01;;;;;;;18.73;17.30;;;23.90;37.30;;;;;;5031579;28;20946;-74
2021/04/23 09:31:29;;;;;;;17.43;16.13;;;23.80;37.50;;;;;;5031554;28;20477;-73
2021/04/23 09:33:57;;;;;;;18.10;16.70;;;24.20;36.50;;;;;;5031411;28;20476;-71
2021/04/23 09:36:30;;;;;;;17.23;16.10;;;24.30;36.40;;;;;;5031151;28;20489;-73
2021/04/23 09:39:05;;;;;;;18.87;17.47;;;24.20;36.30;;;;;;5031396;28;20453;-73
2021/04/23 09:41:31;;;;;;;18.40;16.67;;;23.60;37.10;;;;;;5031157;28;20479;-73
2021/04/23 09:43:57;;;;;;;17.30;15.80;;;24.00;37.00;;;;;;5031056;28;20452;-73
2021/04/23 09:46:33;;;;;;;17.30;16.27;;;24.20;36.30;;;;;;5030846;28;20828;-73
2021/04/23 09:49:16;;;;;;;17.60;16.40;;;24.30;36.30;;;;;;5031346;28;20459;-73
2021/04/23 09:51:43;;;;;;;17.33;15.70;;;24.20;35.60;;;;;;5031323;28;20448;-73
2021/04/23 09:54:14;;;;;;;19.20;17.67;;;24.40;35.90;;;;;;5031089;28;20449;-73
2021/04/23 09:56:40;;;;;;;18.90;17.60;;;25.40;35.20;;;;;;5031114;28;20480;-71
2021/04/23 09:59:15;;;;;;;19.00;17.70;;;25.50;34.80;;;;;;5030838;28;20456;-71
2021/04/23 10:01:56;;;;;;;19.17;17.83;;;25.60;34.40;;;;;;5030996;28;20445;-71
2021/04/23 10:04:25;;;;;;;19.30;17.90;;;23.40;35.90;;;;;;5030828;28;20453;-72
2021/04/23 10:07:11;;;;;;;19.73;18.13;;;23.20;36.90;;;;;;5030859;28;20756;-71
2021/04/23 10:09:50;;;;;;;20.00;18.20;;;24.00;36.50;;;;;;5030609;28;20441;-72
2021/04/23 10:12:29;;;;;;;18.97;17.30;;;24.60;35.10;;;;;;5028937;28;20532;-72
2021/04/23 10:15:00;;;;;;;20.13;18.37;;;24.00;35.00;;;;;;5031066;28;20452;-73
2021/04/23 10:17:27;;;;;;;18.10;17.00;;;23.60;35.40;;;;;;5030880;28;20846;-73
2021/04/23 10:19:54;;;;;;;19.87;18.37;;;23.60;36.30;;;;;;5031083;28;20457;-73
2021/04/23 10:22:21;;;;;;;18.00;16.80;;;23.50;36.20;;;;;;5031053;28;20519;-73
2021/04/23 10:24:48;;;;;;;19.30;17.63;;;23.50;36.60;;;;;;5031053;28;20465;-72
2021/04/23 10:27:15;;;;;;;16.90;15.87;;;23.40;36.10;;;;;;5031012;28;20708;-72
2021/04/23 10:29:44;;;;;;;19.33;18.17;;;23.30;35.20;;;;;;5031041;28;20454;-72
2021/04/23 10:32:11;;;;;;;18.53;17.07;;;22.90;34.50;;;;;;5030814;28;20488;-72
2021/04/23 10:34:38;;;;;;;17.77;16.40;;;22.50;35.10;;;;;;5030714;28;20581;-71
2021/04/23 10:37:06;;;;;;;17.60;16.70;;;22.40;36.20;;;;;;5030753;28;20546;-72
2021/04/23 10:39:34;;;;;;;18.60;16.83;;;22.70;36.60;;;;;;5030847;28;20448;-72
2021/04/23 10:42:02;;;;;;;16.90;15.50;;;23.50;37.00;;;;;;5033683;28;20448;-73
2021/04/23 10:45:02;;;;;;;18.77;17.57;;;24.00;36.60;;;;;;5039713;28;20452;-72
2021/04/23 10:47:30;;;;;;;17.63;16.63;;;24.30;35.70;;;;;;5044982;28;20479;-72
2021/04/23 10:50:08;;;;;;;17.60;16.60;;;24.70;35.10;;;;;;5050839;28;20455;-72
2021/04/23 10:52:35;;;;;;;18.40;17.30;;;24.50;34.30;;;;;;5030978;28;20507;-72
2021/04/23 10:55:07;;;;;;;19.60;17.67;;;23.80;34.80;;;;;;5030972;28;20507;-71
2021/04/23 10:57:53;;;;;;;19.10;17.47;;;23.20;35.50;;;;;;5037592;28;21034;-72
2021/04/23 11:00:30;;;;;;;18.67;17.37;;;24.10;34.90;;;;;;5050507;28;20444;-72
2021/04/23 11:03:32;;;;;;;17.37;15.80;;;24.60;35.20;;;;;;5050728;28;20847;-71
2021/04/23 11:06:01;;;;;;;17.10;16.10;;;25.00;33.60;;;;;;5045893;28;20456;-72
2021/04/23 11:08:30;;;;;;;17.23;16.03;;;25.20;33.50;;;;;;5050863;28;20574;-72
2021/04/23 11:11:17;;;;;;;17.90;16.70;;;25.60;33.50;;;;;;5050689;28;20471;-72
2021/04/23 11:13:46;;;;;;;19.13;17.97;;;25.90;32.10;;;;;;5050768;28;20501;-71
2021/04/23 11:16:35;;;;;;;19.70;18.00;;;26.10;31.50;;;;;;5050496;28;20537;-72
2021/04/23 11:19:33;;;;;;;19.07;17.90;;;25.70;32.20;;;;;;5050668;28;20444;-72
2021/04/23 11:22:12;;;;;;;20.30;18.70;;;25.10;31.80;;;;;;5050670;28;20815;-72
2021/04/23 11:24:40;;;;;;;17.50;16.47;;;25.20;32.50;;;;;;5050387;28;20805;-71
2021/04/23 11:27:11;;;;;;;18.90;17.50;;;25.40;31.30;;;;;;5050495;28;21019;-72
2021/04/23 11:29:40;;;;;;;17.83;16.70;;;25.20;30.70;;;;;;5050383;28;20459;-72
2021/04/23 11:32:16;;;;;;;18.00;16.90;;;25.80;31.10;;;;;;5052339;28;20475;-73
2021/04/23 11:34:45;;;;;;;17.10;16.00;;;25.60;31.40;;;;;;5054231;28;20475;-72
2021/04/23 11:37:14;;;;;;;16.83;15.80;;;25.50;30.70;;;;;;5054021;28;20487;-72
2021/04/23 11:39:44;;;;;;;17.80;16.50;;;24.50;32.20;;;;;;5054039;28;20455;-72
2021/04/23 11:42:14;;;;;;;18.20;16.93;;;25.30;31.60;;;;;;5054071;28;20498;-72
2021/04/23 11:44:48;;;;;;;18.73;17.37;;;25.60;31.60;;;;;;5053943;28;20454;-72
2021/04/23 11:47:16;;;;;;;17.00;16.00;;;26.40;30.70;;;;;;5053813;28;20455;-73
2021/04/23 11:49:42;;;;;;;17.80;16.50;;;27.40;28.70;;;;;;5053862;28;20448;-72
2021/04/23 11:52:09;;;;;;;19.93;18.20;;;26.80;29.60;;;;;;5034497;28;20526;-71
2021/04/23 11:54:39;;;;;;;17.63;16.30;;;24.60;31.10;;;;;;5033796;28;20456;-72
2021/04/23 11:57:07;;;;;;;19.47;18.10;;;24.30;32.40;;;;;;5033526;28;20854;-70
2021/04/23 11:59:34;;;;;;;17.07;15.80;;;24.70;31.70;;;;;;5033893;28;20457;-72
2021/04/23 12:02:00;;;;;;;18.17;17.10;;;24.20;31.70;;;;;;5032622;28;20456;-72
2021/04/23 12:04:40;;;;;;;17.20;15.90;;;24.60;30.90;;;;;;5033262;28;20563;-73
2021/04/23 12:07:06;;;;;;;17.50;16.30;;;23.70;30.50;;;;;;5032661;28;20855;-72
2021/04/23 12:09:32;;;;;;;16.40;15.20;;;23.50;29.90;;;;;;5048630;28;20483;-73
2021/04/23 12:12:05;;;;;;;16.90;15.80;;;23.20;30.90;;;;;;5052724;28;20942;-73
2021/04/23 12:14:45;;;;;;;16.37;15.20;;;23.50;30.00;;;;;;5052580;28;20444;-72
2021/04/23 12:17:12;;;;;;;17.80;16.63;;;24.00;29.20;;;;;;5052494;28;20483;-72
2021/04/23 12:19:38;;;;;;;18.03;16.77;;;24.40;29.50;;;;;;5052544;28;20501;-71
2021/04/23 12:22:05;;;;;;;16.70;15.50;;;25.30;29.80;;;;;;5052064;28;20833;-72
2021/04/23 12:24:31;;;;;;;14.70;13.90;;;25.80;28.70;;;;;;5052165;28;20455;-71
2021/04/23 12:26:57;;;;;;;16.90;15.70;;;25.20;27.60;;;;;;5052139;28;20448;-72
2021/04/23 12:29:25;;;;;;;15.30;14.40;;;24.00;28.20;;;;;;5052349;28;20806;-71
2021/04/23 12:31:52;;;;;;;15.57;14.60;;;23.40;28.70;;;;;;5051902;28;20487;-72
2021/04/23 12:34:18;;;;;;;15.60;14.30;;;22.50;28.90;;;;;;5051174;28;20546;-72
2021/04/23 12:36:47;;;;;;;15.70;14.80;;;22.60;28.10;;;;;;5050872;28;20874;-72
2021/04/23 12:39:15;;;;;;;15.60;14.43;;;23.80;28.20;;;;;;5050450;28;20448;-72
2021/04/23 12:41:43;;;;;;;18.10;17.00;;;24.50;28.00;;;;;;5050846;28;20456;-72
2021/04/23 12:44:13;;;;;;;17.30;16.20;;;24.30;28.60;;;;;;5050534;28;20846;-72
2021/04/23 12:46:42;;;;;;;16.90;15.90;;;24.90;29.10;;;;;;5050882;28;20444;-72
2021/04/23 12:49:11;;;;;;;17.37;16.47;;;25.70;28.70;;;;;;5050742;28;20452;-73
2021/04/23 12:51:42;;;;;;;17.40;16.00;;;26.00;28.80;;;;;;5050990;28;20478;-73
2021/04/23 12:54:09;;;;;;;17.47;16.13;;;26.10;29.20;;;;;;5050851;28;20456;-72
2021/04/23 12:56:36;;;;;;;18.27;17.00;;;26.60;28.70;;;;;;5050698;28;20494;-72
2021/04/23 12:59:03;;;;;;;17.67;16.37;;;26.40;29.20;;;;;;5050657;28;20456;-71
2021/04/23 13:01:29;;;;;;;18.13;16.70;;;26.30;29.60;;;;;;5050724;28;20858;-72
2021/04/23 13:04:08;;;;;;;18.27;16.80;;;26.70;28.60;;;;;;5050657;28;20464;-73
2021/04/23 13:06:34;;;;;;;17.30;16.00;;;25.60;28.80;;;;;;5050515;28;20444;-71
2021/04/23 13:09:04;;;;;;;17.67;16.60;;;25.60;28.70;;;;;;5050365;28;20452;-71
2021/04/23 13:11:30;;;;;;;18.47;16.90;;;25.10;28.90;;;;;;5050548;28;20475;-72
2021/04/23 13:13:56;;;;;;;17.83;16.70;;;24.70;29.70;;;;;;5050489;28;20456;-72
2021/04/23 13:16:22;;;;;;;19.00;17.37;;;25.10;29.80;;;;;;5050060;28;20523;-72
2021/04/23 13:18:49;;;;;;;17.83;16.80;;;25.30;29.60;;;;;;5050110;28;20448;-72
2021/04/23 13:21:16;;;;;;;15.70;14.80;;;25.80;29.30;;;;;;5050250;28;20459;-72
2021/04/23 13:23:44;;;;;;;18.93;17.87;;;26.00;28.60;;;;;;5050551;28;20447;-72
2021/04/23 13:26:13;;;;;;;17.83;16.87;;;26.40;28.60;;;;;;5050406;28;20483;-71
2021/04/23 13:28:43;;;;;;;17.67;16.50;;;25.30;29.20;;;;;;5050230;28;20452;-70
2021/04/23 13:31:15;;;;;;;19.93;18.47;;;25.00;30.00;;;;;;5050007;28;20548;-71
2021/04/23 13:33:42;;;;;;;17.60;16.50;;;25.60;29.00;;;;;;5031485;28;537939;-71
2021/04/23 13:36:13;;;;;;;17.53;16.13;;;24.50;29.80;;;;;;5050552;28;20962;-70
2021/04/23 13:38:47;;;;;;;18.20;16.80;;;23.50;29.70;;;;;;5050939;28;20477;-71
2021/04/23 13:41:23;;;;;;;16.43;15.13;;;23.30;30.10;;;;;;5051103;28;20517;-71
2021/04/23 13:43:52;;;;;;;17.53;16.07;;;22.90;30.00;;;;;;5050738;28;20444;-71
2021/04/23 13:46:20;;;;;;;16.67;15.77;;;22.60;30.00;;;;;;5050696;28;20450;-72
2021/04/23 13:48:52;;;;;;;16.33;15.13;;;23.30;30.10;;;;;;5050748;28;20817;-71
2021/04/23 13:51:24;;;;;;;14.60;13.43;;;23.70;30.40;;;;;;5050417;28;20444;-72
2021/04/23 13:53:53;;;;;;;16.57;15.60;;;23.80;30.30;;;;;;5050445;28;20972;-72
2021/04/23 13:56:22;;;;;;;19.17;17.53;;;24.10;30.40;;;;;;5050967;28;20898;-72
2021/04/23 13:58:54;;;;;;;18.40;17.30;;;24.70;29.80;;;;;;5050706;28;20991;-72
2021/04/23 14:01:51;;;;;;;18.73;17.40;;;24.40;30.70;;;;;;5050736;28;20459;-72
2021/04/23 14:04:22;;;;;;;17.53;16.30;;;24.20;30.70;;;;;;5049700;28;20832;-72
2021/04/23 14:06:49;;;;;;;15.33;14.33;;;23.60;30.70;;;;;;5050629;28;20957;-71
2021/04/23 14:09:17;;;;;;;17.03;16.03;;;23.20;31.00;;;;;;5051019;28;20493;-72
2021/04/23 14:11:46;;;;;;;16.70;15.73;;;22.90;31.00;;;;;;5050835;28;20961;-72
2021/04/23 14:14:14;;;;;;;17.43;16.23;;;22.50;31.60;;;;;;5048543;28;20470;-71
2021/04/23 14:16:42;;;;;;;17.20;16.10;;;22.50;31.50;;;;;;5048903;28;20484;-71
2021/04/23 14:19:09;;;;;;;16.50;15.20;;;22.70;31.70;;;;;;5050942;28;20863;-71
2021/04/23 14:21:37;;;;;;;17.43;16.10;;;22.80;31.70;;;;;;5050790;28;20823;-71
2021/04/23 14:24:05;;;;;;;16.80;15.60;;;22.60;31.90;;;;;;5050527;28;20460;-71
2021/04/23 14:26:32;;;;;;;16.87;15.77;;;22.40;31.70;;;;;;5050471;28;20448;-70
2021/04/23 14:28:58;;;;;;;16.90;15.90;;;22.10;32.00;;;;;;5050348;28;20451;-71
2021/04/23 14:31:25;;;;;;;16.63;15.57;;;21.80;31.80;;;;;;5050617;28;20464;-71
2021/04/23 14:33:52;;;;;;;16.60;15.40;;;21.20;31.50;;;;;;5050044;28;20997;-70
2021/04/23 14:36:20;;;;;;;16.40;15.20;;;21.10;32.30;;;;;;5050645;28;20496;-71
2021/04/23 14:38:47;;;;;;;16.40;15.40;;;20.10;32.70;;;;;;5050309;28;20452;-72
2021/04/23 14:41:13;;;;;;;16.30;15.37;;;19.40;33.30;;;;;;5050610;28;21000;-73
2021/04/23 14:43:41;;;;;;;16.57;15.37;;;18.90;35.40;;;;;;5050818;28;20448;-73
2021/04/23 14:46:07;;;;;;;17.00;15.90;;;18.60;36.60;;;;;;5050623;28;20475;-73
2021/04/23 14:48:34;;;;;;;16.27;15.37;;;18.20;37.10;;;;;;5050436;28;20463;-73
2021/04/23 14:51:02;;;;;;;17.43;15.90;;;17.90;37.10;;;;;;5040295;28;20449;-72
2021/04/23 14:53:29;;;;;;;17.57;15.90;;;17.80;37.30;;;;;;5030626;28;20460;-73
2021/04/23 14:55:55;;;;;;;17.07;15.67;;;17.80;37.70;;;;;;5030470;28;20457;-71
2021/04/23 14:58:47;;;;;;;15.93;14.93;;;17.80;37.20;;;;;;5031004;28;20449;-70
2021/04/23 15:01:14;;;;;;;15.50;14.53;;;17.80;37.40;;;;;;5030885;28;20846;-72
2021/04/23 15:03:40;;;;;;;15.40;14.10;;;17.80;37.90;;;;;;5030912;28;20449;-73
2021/04/23 15:06:07;;;;;;;16.17;14.90;;;17.70;37.60;;;;;;5031505;28;20456;-73
2021/04/23 15:08:33;;;;;;;15.43;14.23;;;17.50;37.10;;;;;;5034577;28;20819;-71
2021/04/23 15:11:00;;;;;;;15.47;14.03;;;17.40;37.10;;;;;;5034647;28;20950;-71
2021/04/23 15:13:30;;;;;;;15.77;14.37;;;17.50;38.00;;;;;;5034671;28;20460;-71
2021/04/23 15:15:57;;;;;;;15.07;13.87;;;17.60;38.00;;;;;;5034501;28;20445;-73
2021/04/23 15:18:24;;;;;;;14.57;13.37;;;17.60;37.80;;;;;;5034563;28;20982;-73
2021/04/23 15:20:50;;;;;;;16.17;14.73;;;17.70;37.20;;;;;;5034494;28;20445;-73
2021/04/23 15:23:18;;;;;;;15.00;13.97;;;17.70;37.50;;;;;;5034391;28;20456;-72
2021/04/23 15:25:45;;;;;;;15.47;14.60;;;17.70;37.30;;;;;;5034451;28;20483;-71
2021/04/23 15:28:13;;;;;;;16.07;14.67;;;17.70;37.40;;;;;;5034629;28;20441;-71
2021/04/23 15:30:41;;;;;;;15.47;14.27;;;17.60;36.80;;;;;;5034197;28;20522;-72
2021/04/23 15:33:09;;;;;;;15.30;13.90;;;17.60;36.90;;;;;;5033756;28;20491;-72
2021/04/23 15:35:36;;;;;;;16.97;15.63;;;17.60;37.00;;;;;;5034191;28;20464;-72
2021/04/23 15:38:03;;;;;;;16.17;14.83;;;17.70;37.10;;;;;;5034045;28;20492;-72
2021/04/23 15:40:30;;;;;;;14.87;13.90;;;17.60;37.10;;;;;;5034106;28;20503;-71
2021/04/23 15:42:56;;;;;;;14.80;13.90;;;17.60;37.30;;;;;;5034025;28;20445;-71
2021/04/23 15:45:25;;;;;;;14.43;13.40;;;17.80;37.60;;;;;;5033814;28;20452;-72
2021/04/23 15:47:52;;;;;;;15.90;14.70;;;17.70;37.40;;;;;;5033961;28;20819;-72
2021/04/23 15:50:22;;;;;;;14.87;13.63;;;17.70;37.90;;;;;;5038126;28;20908;-71
2021/04/23 15:52:48;;;;;;;15.60;14.53;;;17.60;37.60;;;;;;5053879;28;20547;-71
2021/04/23 15:55:15;;;;;;;15.80;14.50;;;17.60;37.80;;;;;;5053657;28;20460;-72
2021/04/23 15:57:41;;;;;;;14.23;13.23;;;17.60;38.10;;;;;;5053578;28;20534;-71
2021/04/23 16:00:10;;;;;;;15.17;14.07;;;17.60;38.00;;;;;;5053608;28;20448;-71
2021/04/23 16:02:37;;;;;;;17.53;16.30;;;17.60;38.30;;;;;;5053450;28;20444;-72
2021/04/23 16:05:04;;;;;;;15.90;14.60;;;17.60;38.10;;;;;;5053602;28;20452;-72
2021/04/23 16:07:31;;;;;;;16.40;15.03;;;17.70;38.30;;;;;;5053527;28;20448;-72